sensor_id;sensor_type;location;lat;lon;timestamp;pressure;altitude;pressure_sealevel;temperature;humidity
14269;BME280;7218;51.480;7.006;2022-11-09T00:00:04;99812.94;;;15.78;93.75
14269;BME280;7218;51.480;7.006;2022-11-09T00:02:32;99813.13;;;15.92;93.58
14269;BME280;7218;51.480;7.006;2022-11-09T00:04:58;99803.97;;;15.82;93.73
14269;BME280;7218;51.480;7.006;2022-11-09T00:07:25;99790.59;;;15.86;93.49
14269;BME280;7218;51.480;7.006;2022-11-09T00:09:51;99798.38;;;15.71;94.40
14269;BME280;7218;51.480;7.006;2022-11-09T00:12:17;99802.47;;;15.76;94.19
14269;BME280;7218;51.480;7.006;2022-11-09T00:14:44;99800.22;;;15.69;94.31
14269;BME280;7218;51.480;7.006;2022-11-09T00:17:10;99801.69;;;15.74;94.12
14269;BME280;7218;51.480;7.006;2022-11-09T00:19:39;99800.59;;;15.61;95.04
14269;BME280;7218;51.480;7.006;2022-11-09T00:22:05;99796.03;;;15.65;94.67
14269;BME280;7218;51.480;7.006;2022-11-09T00:24:32;99799.03;;;15.57;95.38
14269;BME280;7218;51.480;7.006;2022-11-09T00:26:59;99799.88;;;15.39;96.09
14269;BME280;7218;51.480;7.006;2022-11-09T00:29:27;99782.41;;;15.57;95.02
14269;BME280;7218;51.480;7.006;2022-11-09T00:31:53;99780.47;;;15.41;95.44
14269;BME280;7218;51.480;7.006;2022-11-09T00:34:20;99778.91;;;15.37;96.10
14269;BME280;7218;51.480;7.006;2022-11-09T00:36:47;99789.66;;;15.52;95.36
14269;BME280;7218;51.480;7.006;2022-11-09T00:39:14;99776.53;;;15.52;94.68
14269;BME280;7218;51.480;7.006;2022-11-09T00:41:40;99791.53;;;15.29;96.04
14269;BME280;7218;51.480;7.006;2022-11-09T00:44:07;99784.28;;;15.34;95.58
14269;BME280;7218;51.480;7.006;2022-11-09T00:46:33;99785.25;;;15.52;94.65
14269;BME280;7218;51.480;7.006;2022-11-09T00:49:00;99782.47;;;15.36;95.66
14269;BME280;7218;51.480;7.006;2022-11-09T00:51:26;99780.84;;;15.34;95.37
14269;BME280;7218;51.480;7.006;2022-11-09T00:53:55;99781.38;;;15.40;95.43
14269;BME280;7218;51.480;7.006;2022-11-09T00:56:22;99773.28;;;15.45;95.01
14269;BME280;7218;51.480;7.006;2022-11-09T00:58:51;99779.78;;;15.19;96.46
14269;BME280;7218;51.480;7.006;2022-11-09T01:01:18;99782.63;;;15.33;95.22
14269;BME280;7218;51.480;7.006;2022-11-09T01:03:45;99786.81;;;15.19;96.16
14269;BME280;7218;51.480;7.006;2022-11-09T01:06:14;99794.81;;;15.34;95.51
14269;BME280;7218;51.480;7.006;2022-11-09T01:08:41;99799.22;;;15.34;95.17
14269;BME280;7218;51.480;7.006;2022-11-09T01:11:09;99790.50;;;15.33;95.49
14269;BME280;7218;51.480;7.006;2022-11-09T01:13:37;99791.63;;;15.28;95.54
14269;BME280;7218;51.480;7.006;2022-11-09T01:16:05;99793.25;;;15.12;96.59
14269;BME280;7218;51.480;7.006;2022-11-09T01:18:32;99790.34;;;15.18;95.90
14269;BME280;7218;51.480;7.006;2022-11-09T01:21:00;99792.13;;;15.17;95.86
14269;BME280;7218;51.480;7.006;2022-11-09T01:23:27;99802.19;;;15.26;95.50
14269;BME280;7218;51.480;7.006;2022-11-09T01:25:56;99794.03;;;15.14;96.31
14269;BME280;7218;51.480;7.006;2022-11-09T01:28:24;99802.56;;;15.19;96.00
14269;BME280;7218;51.480;7.006;2022-11-09T01:30:52;99797.84;;;15.06;96.30
14269;BME280;7218;51.480;7.006;2022-11-09T01:33:18;99799.22;;;15.15;95.99
14269;BME280;7218;51.480;7.006;2022-11-09T01:35:45;99804.25;;;15.20;95.29
14269;BME280;7218;51.480;7.006;2022-11-09T01:38:12;99810.94;;;15.08;96.21
14269;BME280;7218;51.480;7.006;2022-11-09T01:40:39;99808.94;;;15.13;96.20
14269;BME280;7218;51.480;7.006;2022-11-09T01:43:07;99822.13;;;15.12;96.52
14269;BME280;7218;51.480;7.006;2022-11-09T01:45:42;99810.22;;;15.23;95.78
14269;BME280;7218;51.480;7.006;2022-11-09T01:48:12;99808.69;;;15.19;96.19
14269;BME280;7218;51.480;7.006;2022-11-09T01:50:42;99811.63;;;15.12;96.31
14269;BME280;7218;51.480;7.006;2022-11-09T01:53:13;99813.66;;;15.05;96.79
14269;BME280;7218;51.480;7.006;2022-11-09T01:55:41;99809.84;;;14.93;96.94
14269;BME280;7218;51.480;7.006;2022-11-09T01:58:11;99808.69;;;15.19;96.02
14269;BME280;7218;51.480;7.006;2022-11-09T02:00:43;99807.28;;;15.11;96.02
14269;BME280;7218;51.480;7.006;2022-11-09T02:03:16;99812.63;;;15.09;96.36
14269;BME280;7218;51.480;7.006;2022-11-09T02:05:44;99798.72;;;15.07;95.90
14269;BME280;7218;51.480;7.006;2022-11-09T02:08:13;99804.81;;;15.07;96.18
14269;BME280;7218;51.480;7.006;2022-11-09T02:10:45;99804.22;;;15.01;96.60
14269;BME280;7218;51.480;7.006;2022-11-09T02:13:15;99802.47;;;15.01;96.71
14269;BME280;7218;51.480;7.006;2022-11-09T02:15:44;99807.78;;;15.00;96.80
14269;BME280;7218;51.480;7.006;2022-11-09T02:18:11;99804.03;;;15.05;96.05
14269;BME280;7218;51.480;7.006;2022-11-09T02:20:46;99809.28;;;15.05;96.27
14269;BME280;7218;51.480;7.006;2022-11-09T02:23:14;99809.31;;;14.85;96.88
14269;BME280;7218;51.480;7.006;2022-11-09T02:25:45;99808.22;;;14.71;97.36
14269;BME280;7218;51.480;7.006;2022-11-09T02:28:13;99802.75;;;14.75;97.02
14269;BME280;7218;51.480;7.006;2022-11-09T02:30:41;99812.16;;;14.81;96.93
14269;BME280;7218;51.480;7.006;2022-11-09T02:33:08;99811.47;;;14.96;95.83
14269;BME280;7218;51.480;7.006;2022-11-09T02:35:34;99813.19;;;14.97;95.72
14269;BME280;7218;51.480;7.006;2022-11-09T02:38:02;99803.75;;;14.73;96.87
14269;BME280;7218;51.480;7.006;2022-11-09T02:40:31;99812.78;;;14.86;96.46
14269;BME280;7218;51.480;7.006;2022-11-09T02:43:02;99806.38;;;14.73;96.70
14269;BME280;7218;51.480;7.006;2022-11-09T02:45:29;99799.94;;;14.80;96.10
14269;BME280;7218;51.480;7.006;2022-11-09T02:47:56;99803.50;;;14.79;96.53
14269;BME280;7218;51.480;7.006;2022-11-09T02:50:22;99795.03;;;14.72;96.65
14269;BME280;7218;51.480;7.006;2022-11-09T02:52:49;99791.28;;;14.78;96.19
14269;BME280;7218;51.480;7.006;2022-11-09T02:55:17;99801.53;;;14.84;95.49
14269;BME280;7218;51.480;7.006;2022-11-09T02:57:44;99804.28;;;14.60;96.84
14269;BME280;7218;51.480;7.006;2022-11-09T03:00:11;99797.50;;;14.75;95.93
14269;BME280;7218;51.480;7.006;2022-11-09T03:02:38;99794.03;;;14.75;95.70
14269;BME280;7218;51.480;7.006;2022-11-09T03:05:05;99797.69;;;14.91;94.72
14269;BME280;7218;51.480;7.006;2022-11-09T03:07:31;99792.78;;;14.83;94.89
14269;BME280;7218;51.480;7.006;2022-11-09T03:09:58;99796.94;;;14.69;95.79
14269;BME280;7218;51.480;7.006;2022-11-09T03:12:26;99805.66;;;14.89;94.65
14269;BME280;7218;51.480;7.006;2022-11-09T03:14:55;99811.03;;;14.86;94.54
14269;BME280;7218;51.480;7.006;2022-11-09T03:17:22;99821.19;;;14.94;94.25
14269;BME280;7218;51.480;7.006;2022-11-09T03:19:48;99830.75;;;14.95;94.01
14269;BME280;7218;51.480;7.006;2022-11-09T03:22:15;99823.69;;;14.97;93.59
14269;BME280;7218;51.480;7.006;2022-11-09T03:24:41;99830.00;;;14.73;94.97
14269;BME280;7218;51.480;7.006;2022-11-09T03:27:08;99833.41;;;14.75;94.73
14269;BME280;7218;51.480;7.006;2022-11-09T03:29:36;99830.66;;;14.98;93.89
14269;BME280;7218;51.480;7.006;2022-11-09T03:32:02;99821.84;;;14.99;93.91
14269;BME280;7218;51.480;7.006;2022-11-09T03:34:29;99822.59;;;14.82;94.56
14269;BME280;7218;51.480;7.006;2022-11-09T03:36:55;99826.25;;;14.98;93.81
14269;BME280;7218;51.480;7.006;2022-11-09T03:39:22;99833.19;;;14.99;93.61
14269;BME280;7218;51.480;7.006;2022-11-09T03:41:49;99830.88;;;15.12;92.92
14269;BME280;7218;51.480;7.006;2022-11-09T03:44:15;99829.22;;;15.09;93.32
14269;BME280;7218;51.480;7.006;2022-11-09T03:46:43;99839.22;;;15.01;93.61
14269;BME280;7218;51.480;7.006;2022-11-09T03:49:09;99843.13;;;14.93;94.12
14269;BME280;7218;51.480;7.006;2022-11-09T03:51:36;99844.47;;;15.01;93.59
14269;BME280;7218;51.480;7.006;2022-11-09T03:54:03;99843.41;;;15.05;93.46
14269;BME280;7218;51.480;7.006;2022-11-09T03:56:29;99853.88;;;15.07;93.57
14269;BME280;7218;51.480;7.006;2022-11-09T03:58:56;99850.66;;;15.00;94.18
14269;BME280;7218;51.480;7.006;2022-11-09T04:01:22;99852.75;;;14.92;94.44
14269;BME280;7218;51.480;7.006;2022-11-09T04:03:50;99854.88;;;15.23;93.13
14269;BME280;7218;51.480;7.006;2022-11-09T04:06:17;99845.94;;;15.08;93.67
14269;BME280;7218;51.480;7.006;2022-11-09T04:08:43;99854.00;;;15.04;93.75
14269;BME280;7218;51.480;7.006;2022-11-09T04:11:10;99839.59;;;14.94;94.53
14269;BME280;7218;51.480;7.006;2022-11-09T04:13:36;99847.16;;;15.00;93.93
14269;BME280;7218;51.480;7.006;2022-11-09T04:16:03;99833.56;;;15.11;93.81
14269;BME280;7218;51.480;7.006;2022-11-09T04:18:29;99846.69;;;15.11;93.48
14269;BME280;7218;51.480;7.006;2022-11-09T04:20:58;99841.75;;;15.23;92.77
14269;BME280;7218;51.480;7.006;2022-11-09T04:23:24;99842.91;;;14.97;93.58
14269;BME280;7218;51.480;7.006;2022-11-09T04:25:51;99840.09;;;15.02;93.67
14269;BME280;7218;51.480;7.006;2022-11-09T04:28:17;99841.03;;;15.20;92.60
14269;BME280;7218;51.480;7.006;2022-11-09T04:30:44;99837.91;;;15.12;92.99
14269;BME280;7218;51.480;7.006;2022-11-09T04:33:11;99840.47;;;15.32;92.34
14269;BME280;7218;51.480;7.006;2022-11-09T04:35:37;99847.44;;;15.14;93.12
14269;BME280;7218;51.480;7.006;2022-11-09T04:38:06;99848.84;;;15.21;92.25
14269;BME280;7218;51.480;7.006;2022-11-09T04:40:34;99857.56;;;15.03;93.42
14269;BME280;7218;51.480;7.006;2022-11-09T04:43:02;99858.16;;;14.89;94.26
14269;BME280;7218;51.480;7.006;2022-11-09T04:45:31;99859.00;;;14.90;94.41
14269;BME280;7218;51.480;7.006;2022-11-09T04:47:58;99871.81;;;14.97;94.19
14269;BME280;7218;51.480;7.006;2022-11-09T04:50:24;99864.97;;;14.93;93.77
14269;BME280;7218;51.480;7.006;2022-11-09T04:52:51;99865.28;;;15.06;93.26
14269;BME280;7218;51.480;7.006;2022-11-09T04:55:19;99873.88;;;15.09;93.54
14269;BME280;7218;51.480;7.006;2022-11-09T04:57:46;99872.25;;;15.07;93.76
14269;BME280;7218;51.480;7.006;2022-11-09T05:00:13;99884.88;;;14.99;96.14
14269;BME280;7218;51.480;7.006;2022-11-09T05:02:39;99884.34;;;14.71;98.33
14269;BME280;7218;51.480;7.006;2022-11-09T05:05:06;99893.78;;;14.54;100.00
14269;BME280;7218;51.480;7.006;2022-11-09T05:07:32;99891.50;;;14.67;99.67
14269;BME280;7218;51.480;7.006;2022-11-09T05:09:59;99897.03;;;14.59;100.00
14269;BME280;7218;51.480;7.006;2022-11-09T05:12:27;99894.81;;;14.71;100.00
14269;BME280;7218;51.480;7.006;2022-11-09T05:14:53;99889.44;;;14.32;100.00
14269;BME280;7218;51.480;7.006;2022-11-09T05:17:20;99887.06;;;14.47;100.00
14269;BME280;7218;51.480;7.006;2022-11-09T05:19:46;99902.28;;;14.39;100.00
14269;BME280;7218;51.480;7.006;2022-11-09T05:22:12;99902.69;;;14.07;100.00
14269;BME280;7218;51.480;7.006;2022-11-09T05:24:57;99885.09;;;14.31;100.00
14269;BME280;7218;51.480;7.006;2022-11-09T05:27:23;99897.72;;;14.21;100.00
14269;BME280;7218;51.480;7.006;2022-11-09T05:29:51;99888.78;;;14.27;100.00
14269;BME280;7218;51.480;7.006;2022-11-09T05:32:17;99894.03;;;14.27;100.00
14269;BME280;7218;51.480;7.006;2022-11-09T05:34:44;99900.50;;;14.18;100.00
14269;BME280;7218;51.480;7.006;2022-11-09T05:37:10;99890.44;;;14.29;100.00
14269;BME280;7218;51.480;7.006;2022-11-09T05:39:37;99896.97;;;14.41;100.00
14269;BME280;7218;51.480;7.006;2022-11-09T05:42:04;99896.09;;;14.40;100.00
14269;BME280;7218;51.480;7.006;2022-11-09T05:44:30;99899.25;;;14.27;100.00
14269;BME280;7218;51.480;7.006;2022-11-09T05:46:58;99902.00;;;14.45;100.00
14269;BME280;7218;51.480;7.006;2022-11-09T05:49:24;99899.97;;;14.30;100.00
14269;BME280;7218;51.480;7.006;2022-11-09T05:51:51;99917.59;;;14.05;100.00
14269;BME280;7218;51.480;7.006;2022-11-09T05:54:17;99922.91;;;13.58;100.00
14269;BME280;7218;51.480;7.006;2022-11-09T05:56:44;99905.81;;;13.71;100.00
14269;BME280;7218;51.480;7.006;2022-11-09T05:59:11;99912.66;;;13.52;100.00
14269;BME280;7218;51.480;7.006;2022-11-09T06:01:38;99899.66;;;13.26;100.00
14269;BME280;7218;51.480;7.006;2022-11-09T06:04:05;99884.16;;;13.66;100.00
14269;BME280;7218;51.480;7.006;2022-11-09T06:06:32;99884.34;;;13.62;100.00
14269;BME280;7218;51.480;7.006;2022-11-09T06:08:58;99888.28;;;13.27;100.00
14269;BME280;7218;51.480;7.006;2022-11-09T06:11:25;99888.28;;;13.50;100.00
14269;BME280;7218;51.480;7.006;2022-11-09T06:13:52;99889.09;;;13.52;100.00
14269;BME280;7218;51.480;7.006;2022-11-09T06:16:19;99888.19;;;13.53;100.00
14269;BME280;7218;51.480;7.006;2022-11-09T06:18:46;99891.25;;;13.64;100.00
14269;BME280;7218;51.480;7.006;2022-11-09T06:21:14;99886.34;;;13.78;100.00
14269;BME280;7218;51.480;7.006;2022-11-09T06:23:40;99885.34;;;13.59;100.00
14269;BME280;7218;51.480;7.006;2022-11-09T06:26:09;99891.94;;;13.69;100.00
14269;BME280;7218;51.480;7.006;2022-11-09T06:28:36;99884.13;;;13.68;100.00
14269;BME280;7218;51.480;7.006;2022-11-09T06:31:05;99889.81;;;13.56;100.00
14269;BME280;7218;51.480;7.006;2022-11-09T06:33:32;99892.03;;;13.66;100.00
14269;BME280;7218;51.480;7.006;2022-11-09T06:36:00;99889.53;;;13.40;100.00
14269;BME280;7218;51.480;7.006;2022-11-09T06:38:29;99883.09;;;13.72;100.00
14269;BME280;7218;51.480;7.006;2022-11-09T06:40:57;99886.50;;;13.74;100.00
14269;BME280;7218;51.480;7.006;2022-11-09T06:43:24;99888.88;;;13.80;100.00
14269;BME280;7218;51.480;7.006;2022-11-09T06:45:51;99887.88;;;13.84;100.00
14269;BME280;7218;51.480;7.006;2022-11-09T06:48:18;99894.38;;;13.96;100.00
14269;BME280;7218;51.480;7.006;2022-11-09T06:50:45;99894.00;;;14.05;100.00
14269;BME280;7218;51.480;7.006;2022-11-09T06:53:13;99896.41;;;14.11;100.00
14269;BME280;7218;51.480;7.006;2022-11-09T06:55:42;99905.31;;;14.07;100.00
14269;BME280;7218;51.480;7.006;2022-11-09T06:58:10;99911.88;;;13.95;100.00
14269;BME280;7218;51.480;7.006;2022-11-09T07:00:38;99910.91;;;13.98;100.00
14269;BME280;7218;51.480;7.006;2022-11-09T07:03:04;99911.38;;;13.86;100.00
14269;BME280;7218;51.480;7.006;2022-11-09T07:05:31;99911.94;;;14.15;100.00
14269;BME280;7218;51.480;7.006;2022-11-09T07:07:58;99918.28;;;14.10;100.00
14269;BME280;7218;51.480;7.006;2022-11-09T07:10:24;99923.34;;;13.93;100.00
14269;BME280;7218;51.480;7.006;2022-11-09T07:12:52;99924.38;;;13.89;100.00
14269;BME280;7218;51.480;7.006;2022-11-09T07:15:18;99926.31;;;13.84;100.00
14269;BME280;7218;51.480;7.006;2022-11-09T07:17:45;99928.47;;;13.96;100.00
14269;BME280;7218;51.480;7.006;2022-11-09T07:20:11;99929.25;;;13.98;100.00
14269;BME280;7218;51.480;7.006;2022-11-09T07:22:39;99942.41;;;13.96;100.00
14269;BME280;7218;51.480;7.006;2022-11-09T07:25:07;99939.69;;;13.99;100.00
14269;BME280;7218;51.480;7.006;2022-11-09T07:27:34;99943.63;;;13.88;100.00
14269;BME280;7218;51.480;7.006;2022-11-09T07:30:03;99948.06;;;13.86;100.00
14269;BME280;7218;51.480;7.006;2022-11-09T07:32:31;99952.81;;;13.99;100.00
14269;BME280;7218;51.480;7.006;2022-11-09T07:34:58;99947.72;;;13.95;100.00
14269;BME280;7218;51.480;7.006;2022-11-09T07:37:24;99947.47;;;13.79;100.00
14269;BME280;7218;51.480;7.006;2022-11-09T07:39:51;99943.22;;;13.98;100.00
14269;BME280;7218;51.480;7.006;2022-11-09T07:42:17;99942.63;;;13.68;100.00
14269;BME280;7218;51.480;7.006;2022-11-09T07:44:43;99947.56;;;13.76;100.00
14269;BME280;7218;51.480;7.006;2022-11-09T07:47:12;99942.16;;;13.80;100.00
14269;BME280;7218;51.480;7.006;2022-11-09T07:49:38;99961.66;;;13.73;100.00
14269;BME280;7218;51.480;7.006;2022-11-09T07:52:04;99960.97;;;13.68;100.00
14269;BME280;7218;51.480;7.006;2022-11-09T07:54:31;99954.63;;;13.51;100.00
14269;BME280;7218;51.480;7.006;2022-11-09T07:56:57;99961.78;;;13.46;100.00
14269;BME280;7218;51.480;7.006;2022-11-09T07:59:24;99969.34;;;13.55;100.00
14269;BME280;7218;51.480;7.006;2022-11-09T08:01:51;99969.38;;;13.53;100.00
14269;BME280;7218;51.480;7.006;2022-11-09T08:04:18;99969.00;;;13.64;100.00
14269;BME280;7218;51.480;7.006;2022-11-09T08:06:45;99958.00;;;13.54;100.00
14269;BME280;7218;51.480;7.006;2022-11-09T08:09:11;99965.97;;;13.51;100.00
14269;BME280;7218;51.480;7.006;2022-11-09T08:11:39;99965.00;;;13.77;100.00
14269;BME280;7218;51.480;7.006;2022-11-09T08:14:05;99962.22;;;13.82;100.00
14269;BME280;7218;51.480;7.006;2022-11-09T08:16:32;99964.09;;;13.78;100.00
14269;BME280;7218;51.480;7.006;2022-11-09T08:18:58;99958.91;;;13.76;100.00
14269;BME280;7218;51.480;7.006;2022-11-09T08:21:26;99966.41;;;13.86;100.00
14269;BME280;7218;51.480;7.006;2022-11-09T08:23:52;99974.94;;;13.69;100.00
14269;BME280;7218;51.480;7.006;2022-11-09T08:26:19;99975.34;;;13.80;100.00
14269;BME280;7218;51.480;7.006;2022-11-09T08:28:45;99983.00;;;13.86;100.00
14269;BME280;7218;51.480;7.006;2022-11-09T08:31:12;99979.31;;;13.92;100.00
14269;BME280;7218;51.480;7.006;2022-11-09T08:33:40;99990.88;;;14.09;100.00
14269;BME280;7218;51.480;7.006;2022-11-09T08:36:10;99991.88;;;14.05;100.00
14269;BME280;7218;51.480;7.006;2022-11-09T08:38:39;99988.94;;;14.14;100.00
14269;BME280;7218;51.480;7.006;2022-11-09T08:41:06;99988.56;;;14.23;100.00
14269;BME280;7218;51.480;7.006;2022-11-09T08:43:33;99993.78;;;14.02;100.00
14269;BME280;7218;51.480;7.006;2022-11-09T08:46:00;99993.50;;;14.31;100.00
14269;BME280;7218;51.480;7.006;2022-11-09T08:48:26;100000.16;;;14.18;100.00
14269;BME280;7218;51.480;7.006;2022-11-09T08:50:54;100003.94;;;14.33;100.00
14269;BME280;7218;51.480;7.006;2022-11-09T08:53:21;99996.97;;;14.32;100.00
14269;BME280;7218;51.480;7.006;2022-11-09T08:55:50;100009.56;;;14.23;100.00
14269;BME280;7218;51.480;7.006;2022-11-09T08:58:17;100005.19;;;14.68;100.00
14269;BME280;7218;51.480;7.006;2022-11-09T09:00:43;100012.00;;;14.50;100.00
14269;BME280;7218;51.480;7.006;2022-11-09T09:03:10;100009.09;;;14.79;99.55
14269;BME280;7218;51.480;7.006;2022-11-09T09:05:36;100000.19;;;14.83;99.86
14269;BME280;7218;51.480;7.006;2022-11-09T09:08:04;100005.91;;;14.71;100.00
14269;BME280;7218;51.480;7.006;2022-11-09T09:10:31;100002.38;;;14.72;98.75
14269;BME280;7218;51.480;7.006;2022-11-09T09:13:01;100011.53;;;14.84;97.98
14269;BME280;7218;51.480;7.006;2022-11-09T09:15:27;99999.22;;;15.46;95.90
14269;BME280;7218;51.480;7.006;2022-11-09T09:17:54;100004.22;;;15.32;95.29
14269;BME280;7218;51.480;7.006;2022-11-09T09:20:20;99999.38;;;15.23;94.78
14269;BME280;7218;51.480;7.006;2022-11-09T09:22:47;100005.63;;;15.39;93.82
14269;BME280;7218;51.480;7.006;2022-11-09T09:25:13;100008.34;;;15.78;91.09
14269;BME280;7218;51.480;7.006;2022-11-09T09:27:42;100011.88;;;16.52;87.29
14269;BME280;7218;51.480;7.006;2022-11-09T09:30:11;99998.34;;;17.30;83.99
14269;BME280;7218;51.480;7.006;2022-11-09T09:32:38;99999.88;;;16.47;84.51
14269;BME280;7218;51.480;7.006;2022-11-09T09:35:05;100017.25;;;15.74;89.15
14269;BME280;7218;51.480;7.006;2022-11-09T09:37:33;100016.47;;;16.11;87.36
14269;BME280;7218;51.480;7.006;2022-11-09T09:39:59;100010.78;;;16.20;87.16
14269;BME280;7218;51.480;7.006;2022-11-09T09:42:30;100014.47;;;15.38;90.94
14269;BME280;7218;51.480;7.006;2022-11-09T09:44:59;100016.19;;;15.19;92.48
14269;BME280;7218;51.480;7.006;2022-11-09T09:47:38;100018.13;;;15.34;91.29
14269;BME280;7218;51.480;7.006;2022-11-09T09:50:11;100035.53;;;15.17;92.17
14269;BME280;7218;51.480;7.006;2022-11-09T09:52:40;100031.94;;;15.19;91.39
14269;BME280;7218;51.480;7.006;2022-11-09T09:55:11;100023.97;;;16.00;87.32
14269;BME280;7218;51.480;7.006;2022-11-09T09:57:42;100035.44;;;16.36;85.85
14269;BME280;7218;51.480;7.006;2022-11-09T10:00:18;100031.13;;;16.17;85.87
14269;BME280;7218;51.480;7.006;2022-11-09T10:02:47;100045.00;;;15.81;87.25
14269;BME280;7218;51.480;7.006;2022-11-09T10:05:16;100054.91;;;15.34;89.04
14269;BME280;7218;51.480;7.006;2022-11-09T10:07:48;100046.78;;;16.00;86.81
14269;BME280;7218;51.480;7.006;2022-11-09T10:10:36;100066.22;;;15.36;87.78
14269;BME280;7218;51.480;7.006;2022-11-09T10:13:21;100051.78;;;15.67;85.81
14269;BME280;7218;51.480;7.006;2022-11-09T10:15:53;100054.72;;;16.18;84.86
14269;BME280;7218;51.480;7.006;2022-11-09T10:18:31;100038.56;;;17.34;78.24
14269;BME280;7218;51.480;7.006;2022-11-09T10:21:14;100035.38;;;17.44;77.84
14269;BME280;7218;51.480;7.006;2022-11-09T10:23:57;100048.88;;;17.04;79.25
14269;BME280;7218;51.480;7.006;2022-11-09T10:26:28;100030.84;;;17.98;74.84
14269;BME280;7218;51.480;7.006;2022-11-09T10:29:00;100028.25;;;18.76;69.76
14269;BME280;7218;51.480;7.006;2022-11-09T10:31:30;100050.13;;;16.97;77.93
14269;BME280;7218;51.480;7.006;2022-11-09T10:34:02;100048.81;;;17.57;75.87
14269;BME280;7218;51.480;7.006;2022-11-09T10:36:41;100050.28;;;17.11;77.06
14269;BME280;7218;51.480;7.006;2022-11-09T10:39:12;100044.78;;;17.50;75.44
14269;BME280;7218;51.480;7.006;2022-11-09T10:41:41;100046.97;;;17.07;75.04
14269;BME280;7218;51.480;7.006;2022-11-09T10:44:12;100075.47;;;16.24;78.53
14269;BME280;7218;51.480;7.006;2022-11-09T10:47:01;100048.38;;;17.66;74.34
14269;BME280;7218;51.480;7.006;2022-11-09T10:49:30;100062.47;;;17.31;74.53
14269;BME280;7218;51.480;7.006;2022-11-09T10:51:58;100060.31;;;17.73;72.23
14269;BME280;7218;51.480;7.006;2022-11-09T10:54:27;100072.41;;;17.43;73.92
14269;BME280;7218;51.480;7.006;2022-11-09T10:57:02;100052.91;;;19.22;64.39
14269;BME280;7218;51.480;7.006;2022-11-09T10:59:38;100055.31;;;19.11;63.32
14269;BME280;7218;51.480;7.006;2022-11-09T11:02:43;100062.94;;;17.73;69.26
14269;BME280;7218;51.480;7.006;2022-11-09T11:05:36;100048.41;;;18.93;64.32
14269;BME280;7218;51.480;7.006;2022-11-09T11:08:25;100049.22;;;18.64;65.34
14269;BME280;7218;51.480;7.006;2022-11-09T11:11:12;100057.88;;;18.50;64.42
14269;BME280;7218;51.480;7.006;2022-11-09T11:13:40;100058.66;;;18.03;66.41
14269;BME280;7218;51.480;7.006;2022-11-09T11:16:27;100074.69;;;17.49;68.09
14269;BME280;7218;51.480;7.006;2022-11-09T11:18:54;100061.44;;;18.33;65.01
14269;BME280;7218;51.480;7.006;2022-11-09T11:21:24;100053.31;;;18.69;63.84
14269;BME280;7218;51.480;7.006;2022-11-09T11:24:12;100079.91;;;18.66;62.04
14269;BME280;7218;51.480;7.006;2022-11-09T11:26:46;100055.88;;;20.04;55.87
14269;BME280;7218;51.480;7.006;2022-11-09T11:29:30;100048.03;;;20.31;55.60
14269;BME280;7218;51.480;7.006;2022-11-09T11:31:57;100057.94;;;19.99;55.70
14269;BME280;7218;51.480;7.006;2022-11-09T11:34:24;100055.72;;;21.68;51.75
14269;BME280;7218;51.480;7.006;2022-11-09T11:37:02;100058.56;;;20.59;53.11
14269;BME280;7218;51.480;7.006;2022-11-09T11:39:40;100050.09;;;19.98;55.71
14269;BME280;7218;51.480;7.006;2022-11-09T11:42:24;100080.44;;;19.48;56.42
14269;BME280;7218;51.480;7.006;2022-11-09T11:45:05;100047.69;;;19.51;55.60
14269;BME280;7218;51.480;7.006;2022-11-09T11:47:43;100077.28;;;19.57;55.58
14269;BME280;7218;51.480;7.006;2022-11-09T11:50:35;100063.94;;;19.29;57.64
14269;BME280;7218;51.480;7.006;2022-11-09T11:53:16;100054.81;;;19.78;54.67
14269;BME280;7218;51.480;7.006;2022-11-09T11:56:04;100086.66;;;17.90;61.43
14269;BME280;7218;51.480;7.006;2022-11-09T11:58:47;100082.94;;;19.06;58.82
14269;BME280;7218;51.480;7.006;2022-11-09T12:01:32;100072.66;;;18.85;57.97
14269;BME280;7218;51.480;7.006;2022-11-09T12:04:11;100079.53;;;17.75;62.60
14269;BME280;7218;51.480;7.006;2022-11-09T12:06:57;100076.88;;;19.49;56.14
14269;BME280;7218;51.480;7.006;2022-11-09T12:09:59;100107.84;;;21.03;49.29
14269;BME280;7218;51.480;7.006;2022-11-09T12:12:42;100076.72;;;19.66;54.12
14269;BME280;7218;51.480;7.006;2022-11-09T12:15:22;100071.09;;;19.72;54.68
14269;BME280;7218;51.480;7.006;2022-11-09T12:18:00;100070.91;;;20.04;52.08
14269;BME280;7218;51.480;7.006;2022-11-09T12:20:30;100085.94;;;18.68;56.89
14269;BME280;7218;51.480;7.006;2022-11-09T12:23:12;100097.38;;;17.87;62.40
14269;BME280;7218;51.480;7.006;2022-11-09T12:25:47;100084.88;;;16.86;65.88
14269;BME280;7218;51.480;7.006;2022-11-09T12:28:26;100088.19;;;17.26;65.13
14269;BME280;7218;51.480;7.006;2022-11-09T12:31:05;100088.84;;;17.48;65.25
14269;BME280;7218;51.480;7.006;2022-11-09T12:33:41;100068.22;;;18.55;60.57
14269;BME280;7218;51.480;7.006;2022-11-09T12:36:13;100094.06;;;16.59;68.18
14269;BME280;7218;51.480;7.006;2022-11-09T12:38:47;100087.84;;;16.04;71.71
14269;BME280;7218;51.480;7.006;2022-11-09T12:41:20;100078.84;;;16.47;71.27
14269;BME280;7218;51.480;7.006;2022-11-09T12:43:51;100080.22;;;17.27;66.76
14269;BME280;7218;51.480;7.006;2022-11-09T12:46:21;100077.56;;;16.36;70.32
14269;BME280;7218;51.480;7.006;2022-11-09T12:48:50;100092.91;;;16.27;71.20
14269;BME280;7218;51.480;7.006;2022-11-09T12:51:17;100076.16;;;15.90;72.72
14269;BME280;7218;51.480;7.006;2022-11-09T12:53:44;100090.50;;;15.63;74.65
14269;BME280;7218;51.480;7.006;2022-11-09T12:56:16;100081.59;;;16.06;74.21
14269;BME280;7218;51.480;7.006;2022-11-09T12:58:45;100092.53;;;15.77;74.82
14269;BME280;7218;51.480;7.006;2022-11-09T13:01:42;100088.41;;;15.71;75.67
14269;BME280;7218;51.480;7.006;2022-11-09T13:04:01;100098.84;;;15.53;75.89
14269;BME280;7218;51.480;7.006;2022-11-09T13:06:29;100082.22;;;15.72;75.66
14269;BME280;7218;51.480;7.006;2022-11-09T13:08:59;100100.03;;;15.66;76.01
14269;BME280;7218;51.480;7.006;2022-11-09T13:11:35;100117.47;;;15.68;75.19
14269;BME280;7218;51.480;7.006;2022-11-09T13:14:35;100085.41;;;15.38;77.17
14269;BME280;7218;51.480;7.006;2022-11-09T13:20:37;100098.25;;;16.25;73.31